createdAt,value
2022-09-07T00:00:02.955Z,59.30
2022-09-07T00:02:29.639Z,59.80
2022-09-07T00:04:56.318Z,60.00
2022-09-07T00:07:22.937Z,60.40
2022-09-07T00:09:51.320Z,61.10
2022-09-07T00:12:17.917Z,61.60
2022-09-07T00:14:44.530Z,62.40
2022-09-07T00:17:11.085Z,62.30
2022-09-07T00:19:37.692Z,62.20
2022-09-07T00:22:04.291Z,61.90
2022-09-07T00:24:30.980Z,61.70
2022-09-07T00:26:57.568Z,61.50
2022-09-07T00:29:24.179Z,61.10
2022-09-07T00:31:50.906Z,60.70
2022-09-07T00:34:17.564Z,60.60
2022-09-07T00:36:44.156Z,61.00
2022-09-07T00:39:10.767Z,61.00
2022-09-07T00:41:37.389Z,60.50
2022-09-07T00:44:22.707Z,60.70
2022-09-07T00:46:49.363Z,61.60
2022-09-07T00:49:20.231Z,62.20
2022-09-07T00:51:52.345Z,62.20
2022-09-07T00:54:22.529Z,62.20
2022-09-07T00:56:49.935Z,62.30
2022-09-07T00:59:19.974Z,62.50
2022-09-07T01:01:46.672Z,62.70
2022-09-07T01:04:14.027Z,63.30
2022-09-07T01:06:42.408Z,63.30
2022-09-07T01:09:11.176Z,63.60
2022-09-07T01:11:38.522Z,64.20
2022-09-07T01:14:06.477Z,64.80
2022-09-07T01:16:38.331Z,65.60
2022-09-07T01:19:16.891Z,64.90
2022-09-07T01:21:58.873Z,65.20
2022-09-07T01:24:25.543Z,66.40
2022-09-07T01:27:08.485Z,65.40
2022-09-07T01:29:55.337Z,66.00
2022-09-07T01:32:21.882Z,65.50
2022-09-07T01:34:51.958Z,66.10
2022-09-07T01:37:24.458Z,66.50
2022-09-07T01:40:11.444Z,66.50
2022-09-07T01:42:45.578Z,66.40
2022-09-07T01:45:13.565Z,66.40
2022-09-07T01:47:43.313Z,66.40
2022-09-07T01:50:19.723Z,66.30
2022-09-07T01:53:01.412Z,66.40
2022-09-07T01:55:46.016Z,66.40
2022-09-07T01:58:17.286Z,66.30
2022-09-07T02:00:47.110Z,66.30
2022-09-07T02:03:15.483Z,66.30
2022-09-07T02:05:45.211Z,67.80
2022-09-07T02:08:14.132Z,66.90
2022-09-07T02:11:02.426Z,67.10
2022-09-07T02:13:32.035Z,67.20
2022-09-07T02:16:00.639Z,67.70
2022-09-07T02:18:29.612Z,68.30
2022-09-07T02:20:57.808Z,68.20
2022-09-07T02:23:25.912Z,68.10
2022-09-07T02:25:55.842Z,67.60
2022-09-07T02:28:24.499Z,67.90
2022-09-07T02:30:51.181Z,68.30
2022-09-07T02:33:17.839Z,68.10
2022-09-07T02:35:44.519Z,68.60
2022-09-07T02:38:11.388Z,68.70
2022-09-07T02:40:38.380Z,68.60
2022-09-07T02:43:06.299Z,69.20
2022-09-07T02:45:38.019Z,69.60
2022-09-07T02:48:27.951Z,70.10
2022-09-07T02:51:04.719Z,70.30
2022-09-07T02:53:31.267Z,70.30
2022-09-07T02:56:14.742Z,70.60
2022-09-07T02:58:49.359Z,70.60
2022-09-07T03:01:15.961Z,70.10
2022-09-07T03:03:48.934Z,71.00
2022-09-07T03:06:22.977Z,71.10
2022-09-07T03:08:51.660Z,71.10
2022-09-07T03:11:18.387Z,70.60
2022-09-07T03:13:44.995Z,71.00
2022-09-07T03:16:12.737Z,71.50
2022-09-07T03:18:39.689Z,72.00
2022-09-07T03:21:06.273Z,72.80
2022-09-07T03:23:33.269Z,73.90
2022-09-07T03:25:59.852Z,74.90
2022-09-07T03:28:26.457Z,74.90
2022-09-07T03:30:53.041Z,75.00
2022-09-07T03:33:19.631Z,74.90
2022-09-07T03:35:47.116Z,74.90
2022-09-07T03:38:13.728Z,74.90
2022-09-07T03:40:42.090Z,74.40
2022-09-07T03:43:08.648Z,75.00
2022-09-07T03:45:35.250Z,74.90
2022-09-07T03:48:01.898Z,75.00
2022-09-07T03:50:29.190Z,74.90
2022-09-07T03:52:56.104Z,75.00
2022-09-07T03:55:22.681Z,76.10
2022-09-07T03:57:49.298Z,76.30
2022-09-07T04:00:16.127Z,76.20
2022-09-07T04:02:42.802Z,77.00
2022-09-07T04:05:09.778Z,77.20
2022-09-07T04:07:36.575Z,77.10
2022-09-07T04:10:03.274Z,77.20
2022-09-07T04:12:29.854Z,77.10
2022-09-07T04:14:56.454Z,76.00
2022-09-07T04:17:23.035Z,76.30
2022-09-07T04:19:49.686Z,76.40
2022-09-07T04:22:16.243Z,76.50
2022-09-07T04:24:42.896Z,76.50
2022-09-07T04:27:09.567Z,76.10
2022-09-07T04:29:36.283Z,76.20
2022-09-07T04:32:02.867Z,75.90
2022-09-07T04:34:29.453Z,76.60
2022-09-07T04:36:56.013Z,77.30
2022-09-07T04:39:22.917Z,77.70
2022-09-07T04:41:49.463Z,78.00
2022-09-07T04:44:17.127Z,77.60
2022-09-07T04:46:43.914Z,77.70
2022-09-07T04:49:10.879Z,77.60
2022-09-07T04:51:38.853Z,76.90
2022-09-07T04:54:06.227Z,76.60
2022-09-07T04:56:32.918Z,75.80
2022-09-07T04:59:00.993Z,75.20
2022-09-07T05:01:28.043Z,75.20
2022-09-07T05:03:54.725Z,75.30
2022-09-07T05:06:22.227Z,75.40
2022-09-07T05:08:50.038Z,75.50
2022-09-07T05:11:17.004Z,74.90
2022-09-07T05:13:43.695Z,73.80
2022-09-07T05:16:11.384Z,72.50
2022-09-07T05:18:38.343Z,71.40
2022-09-07T05:21:11.436Z,70.60
2022-09-07T05:23:38.513Z,69.50
2022-09-07T05:26:05.988Z,67.30
2022-09-07T05:28:33.508Z,64.70
2022-09-07T05:31:19.988Z,63.00
2022-09-07T05:36:35.501Z,58.80
2022-09-07T05:39:02.060Z,55.70
2022-09-07T05:41:28.944Z,56.50
2022-09-07T05:46:42.062Z,59.80
2022-09-07T05:49:08.666Z,61.10
2022-09-07T05:51:36.980Z,61.10
2022-09-07T05:54:03.761Z,63.10
2022-09-07T05:56:30.328Z,64.10
2022-09-07T05:58:57.029Z,65.50
2022-09-07T06:01:23.604Z,65.40
2022-09-07T06:03:50.149Z,64.20
2022-09-07T06:06:18.400Z,64.60
2022-09-07T06:08:46.764Z,63.70
2022-09-07T06:11:14.255Z,62.40
2022-09-07T06:13:41.956Z,62.10
2022-09-07T06:16:09.277Z,59.30
2022-09-07T06:18:37.612Z,53.30
2022-09-07T06:21:04.996Z,49.00
2022-09-07T06:23:32.092Z,49.00
2022-09-07T06:25:58.937Z,49.00
2022-09-07T06:28:32.809Z,50.60
2022-09-07T06:31:02.852Z,50.70
2022-09-07T06:33:29.441Z,52.00
2022-09-07T06:35:57.030Z,52.20
2022-09-07T06:38:23.675Z,53.60
2022-09-07T06:40:50.495Z,53.30
2022-09-07T06:43:17.108Z,53.10
2022-09-07T06:45:43.752Z,50.00
2022-09-07T06:48:10.423Z,51.10
2022-09-07T06:50:37.161Z,49.90
2022-09-07T06:55:50.453Z,49.40
2022-09-07T06:58:17.132Z,49.60
2022-09-07T07:00:43.930Z,47.20
2022-09-07T07:03:10.648Z,45.40
2022-09-07T07:05:38.078Z,45.70
2022-09-07T07:08:04.693Z,44.70
2022-09-07T07:10:31.298Z,44.30
2022-09-07T07:12:58.506Z,42.80
2022-09-07T07:15:25.996Z,40.80
2022-09-07T07:17:58.963Z,41.20
2022-09-07T07:20:29.257Z,42.40
2022-09-07T07:22:56.080Z,40.80
2022-09-07T07:25:23.156Z,41.00
2022-09-07T07:27:50.359Z,42.90
2022-09-07T07:30:17.771Z,41.30
2022-09-07T07:32:44.497Z,42.70
2022-09-07T07:35:11.200Z,42.50
2022-09-07T07:37:38.093Z,41.80
2022-09-07T07:40:23.564Z,38.90
2022-09-07T07:42:52.635Z,37.80
2022-09-07T07:48:05.930Z,38.90
2022-09-07T07:50:33.106Z,38.80
2022-09-07T07:55:47.265Z,38.30
2022-09-07T07:58:13.923Z,39.10
2022-09-07T08:00:56.583Z,34.40
2022-09-07T08:03:24.707Z,32.50
2022-09-07T08:05:52.004Z,28.70
2022-09-07T08:08:18.696Z,26.60
2022-09-07T08:10:47.227Z,29.20
2022-09-07T08:13:14.492Z,24.70
2022-09-07T08:15:44.529Z,20.20
2022-09-07T08:18:12.325Z,20.30
2022-09-07T08:20:42.058Z,20.50
2022-09-07T08:23:08.692Z,15.60
2022-09-07T08:25:35.453Z,16.40
2022-09-07T08:28:02.259Z,16.10
2022-09-07T08:30:29.323Z,12.80
2022-09-07T08:32:55.846Z,15.40
2022-09-07T08:35:22.358Z,16.70
2022-09-07T08:37:48.888Z,13.80
2022-09-07T08:40:19.144Z,7.00
2022-09-07T08:42:45.825Z,7.90
2022-09-07T08:45:17.400Z,4.50
2022-09-07T08:47:50.829Z,2.30
2022-09-07T08:50:29.964Z,2.80
2022-09-07T08:52:59.477Z,1.00
2022-09-07T08:55:31.470Z,1.00
2022-09-07T08:58:14.545Z,1.00
2022-09-07T09:01:30.561Z,1.00
2022-09-07T09:06:50.229Z,1.00
2022-09-07T09:09:19.879Z,1.00
2022-09-07T09:11:46.752Z,1.00
2022-09-07T09:14:33.694Z,1.00
2022-09-07T09:17:03.293Z,1.00
2022-09-07T09:19:48.031Z,1.00
2022-09-07T09:22:14.617Z,1.00
2022-09-07T09:24:45.529Z,1.00
2022-09-07T09:27:12.232Z,1.00
2022-09-07T09:29:38.848Z,1.00
2022-09-07T09:32:24.025Z,1.00
2022-09-07T09:35:20.108Z,1.00
2022-09-07T09:37:46.681Z,1.00
2022-09-07T09:40:19.073Z,1.00
2022-09-07T09:42:46.118Z,1.00
2022-09-07T09:45:16.623Z,1.00
2022-09-07T09:47:47.986Z,1.00
2022-09-07T09:53:21.705Z,1.00
2022-09-07T09:55:50.995Z,1.00
2022-09-07T10:01:27.057Z,1.00
2022-09-07T10:06:25.378Z,1.00
2022-09-07T10:08:55.441Z,1.00
2022-09-07T10:14:33.101Z,1.00
2022-09-07T10:17:01.900Z,1.00
2022-09-07T10:19:39.330Z,1.00
2022-09-07T10:22:26.158Z,1.00
2022-09-07T10:24:52.747Z,1.00
2022-09-07T10:27:20.613Z,1.00
2022-09-07T10:29:47.295Z,1.00
2022-09-07T10:32:13.947Z,1.00
2022-09-07T10:34:58.813Z,1.00
2022-09-07T10:37:33.869Z,1.00
2022-09-07T10:40:25.022Z,1.00
2022-09-07T10:45:52.057Z,1.00
2022-09-07T10:48:31.092Z,1.00
2022-09-07T10:51:05.064Z,1.00
2022-09-07T10:53:42.091Z,1.00
2022-09-07T10:56:17.644Z,1.00
2022-09-07T10:59:05.062Z,1.00
2022-09-07T11:01:43.686Z,1.00
2022-09-07T11:04:23.146Z,1.00
2022-09-07T11:06:52.553Z,1.00
2022-09-07T11:09:30.235Z,1.00
2022-09-07T11:12:03.382Z,1.00
2022-09-07T11:14:33.113Z,1.00
2022-09-07T11:17:02.721Z,1.00
2022-09-07T11:19:35.630Z,1.00
2022-09-07T11:22:13.143Z,1.00
2022-09-07T11:24:44.830Z,1.00
2022-09-07T11:27:18.869Z,1.00
2022-09-07T11:29:54.584Z,1.00
2022-09-07T11:32:22.998Z,1.00
2022-09-07T11:34:57.376Z,1.00
2022-09-07T11:37:30.942Z,1.00
2022-09-07T11:40:06.075Z,1.00
2022-09-07T11:42:48.563Z,1.00
2022-09-07T11:45:27.428Z,1.00
2022-09-07T11:48:05.685Z,1.00
2022-09-07T11:50:34.581Z,1.00
2022-09-07T11:53:07.210Z,1.00
2022-09-07T11:55:36.636Z,1.00
2022-09-07T11:58:06.228Z,1.00
2022-09-07T12:00:43.638Z,1.00
2022-09-07T12:03:23.260Z,1.00
2022-09-07T12:06:08.658Z,1.00
2022-09-07T12:08:54.107Z,1.00
2022-09-07T12:11:40.953Z,1.00
2022-09-07T12:14:25.366Z,1.00
2022-09-07T12:17:01.063Z,1.00
2022-09-07T12:19:27.976Z,1.00
2022-09-07T12:21:56.584Z,1.00
2022-09-07T12:24:32.508Z,1.00
2022-09-07T12:26:59.430Z,1.00
2022-09-07T12:29:27.008Z,1.00
2022-09-07T12:31:59.296Z,1.00
2022-09-07T12:34:29.472Z,1.00
2022-09-07T12:36:56.547Z,1.00
2022-09-07T12:39:28.227Z,1.00
2022-09-07T12:42:37.503Z,1.00
2022-09-07T12:45:23.141Z,1.00
2022-09-07T12:47:56.384Z,1.00
2022-09-07T12:50:30.641Z,1.00
2022-09-07T12:53:17.070Z,1.00
2022-09-07T12:58:46.525Z,1.00
2022-09-07T13:01:36.715Z,1.00
2022-09-07T13:04:03.333Z,1.00
2022-09-07T13:09:38.299Z,1.00
2022-09-07T13:15:28.861Z,1.00
2022-09-07T13:17:56.368Z,1.00
2022-09-07T13:20:29.922Z,1.00
2022-09-07T13:23:06.373Z,1.00
2022-09-07T13:25:43.199Z,1.00
2022-09-07T13:28:15.777Z,1.00
2022-09-07T13:30:47.674Z,1.00
2022-09-07T13:33:29.866Z,1.00
2022-09-07T13:36:13.522Z,1.00
2022-09-07T13:38:41.508Z,1.00
2022-09-07T13:41:16.309Z,1.00
2022-09-07T13:43:47.549Z,1.00
2022-09-07T13:46:25.349Z,1.00
2022-09-07T13:48:56.949Z,1.00
2022-09-07T13:51:26.287Z,1.00
2022-09-07T13:53:55.948Z,1.00
2022-09-07T13:56:34.401Z,1.00
2022-09-07T13:59:10.886Z,1.00
2022-09-07T14:01:42.915Z,1.00
2022-09-07T14:04:23.601Z,1.00
2022-09-07T14:06:50.331Z,1.00
2022-09-07T14:09:18.544Z,1.00
2022-09-07T14:11:46.323Z,1.00
2022-09-07T14:14:23.183Z,1.00
2022-09-07T14:16:54.266Z,1.00
2022-09-07T14:19:24.069Z,1.00
2022-09-07T14:22:05.795Z,1.00
2022-09-07T14:24:34.513Z,1.00
2022-09-07T14:27:01.497Z,1.00
2022-09-07T14:29:30.189Z,1.00
2022-09-07T14:31:57.978Z,1.00
2022-09-07T14:34:26.189Z,1.00
2022-09-07T14:36:53.128Z,1.00
2022-09-07T14:39:22.040Z,1.00
2022-09-07T14:41:49.032Z,1.00
2022-09-07T14:44:32.322Z,1.00
2022-09-07T14:47:01.097Z,1.00
2022-09-07T14:49:28.906Z,1.00
2022-09-07T14:51:55.663Z,1.00
2022-09-07T14:54:32.756Z,1.00
2022-09-07T14:57:01.785Z,1.00
2022-09-07T14:59:40.808Z,1.00
2022-09-07T15:02:19.983Z,1.00
2022-09-07T15:04:47.281Z,1.00
2022-09-07T15:07:29.452Z,1.00
2022-09-07T15:09:56.072Z,1.00
2022-09-07T15:12:36.467Z,1.00
2022-09-07T15:15:27.140Z,1.00
2022-09-07T15:17:55.687Z,1.00
2022-09-07T15:20:32.270Z,1.00
2022-09-07T15:22:59.226Z,1.00
2022-09-07T15:25:25.784Z,1.00
2022-09-07T15:27:53.646Z,1.00
2022-09-07T15:30:20.212Z,1.00
2022-09-07T15:32:46.765Z,1.00
2022-09-07T15:35:13.444Z,1.00
2022-09-07T15:40:27.438Z,1.00
2022-09-07T15:43:03.106Z,1.00
2022-09-07T15:45:39.690Z,1.00
2022-09-07T15:48:06.529Z,1.00
2022-09-07T15:50:33.080Z,1.00
2022-09-07T15:53:00.874Z,1.00
2022-09-07T15:55:27.800Z,1.00
2022-09-07T15:58:08.721Z,1.00
2022-09-07T16:00:38.245Z,1.00
2022-09-07T16:03:05.767Z,1.00
2022-09-07T16:05:33.429Z,1.00
2022-09-07T16:10:53.552Z,1.00
2022-09-07T16:13:20.589Z,1.00
2022-09-07T16:15:47.801Z,1.00
2022-09-07T16:18:18.046Z,1.00
2022-09-07T16:20:45.171Z,1.00
2022-09-07T16:23:14.245Z,1.00
2022-09-07T16:25:42.261Z,1.00
2022-09-07T16:28:09.227Z,1.00
2022-09-07T16:30:38.898Z,1.00
2022-09-07T16:33:05.596Z,1.00
2022-09-07T16:35:32.966Z,1.00
2022-09-07T16:40:46.611Z,1.00
2022-09-07T16:43:13.137Z,1.00
2022-09-07T16:48:26.175Z,1.00
2022-09-07T16:51:01.715Z,1.00
2022-09-07T16:53:29.897Z,1.00
2022-09-07T16:56:00.286Z,1.00
2022-09-07T16:58:36.425Z,1.00
2022-09-07T17:01:04.119Z,1.00
2022-09-07T17:03:30.775Z,1.00
2022-09-07T17:05:59.356Z,1.00
2022-09-07T17:08:26.293Z,1.00
2022-09-07T17:10:58.322Z,1.00
2022-09-07T17:13:24.835Z,1.00
2022-09-07T17:15:51.347Z,1.00
2022-09-07T17:18:18.131Z,1.00
2022-09-07T17:20:53.981Z,1.00
2022-09-07T17:23:21.355Z,1.00
2022-09-07T17:25:48.111Z,1.00
2022-09-07T17:28:15.298Z,1.00
2022-09-07T17:30:41.897Z,1.00
2022-09-07T17:33:08.820Z,1.00
2022-09-07T17:35:37.526Z,1.00
2022-09-07T17:39:14.040Z,1.00
2022-09-07T17:40:51.441Z,1.00
2022-09-07T17:46:05.848Z,1.00
2022-09-07T17:48:33.920Z,1.00
2022-09-07T17:51:04.471Z,1.00
2022-09-07T17:53:31.066Z,1.00
2022-09-07T17:55:57.631Z,1.00
2022-09-07T17:58:24.270Z,1.00
2022-09-07T18:00:51.092Z,1.00
2022-09-07T18:03:17.802Z,1.00
2022-09-07T18:05:44.612Z,1.00
2022-09-07T18:08:12.576Z,1.00
2022-09-07T18:13:36.345Z,1.00
2022-09-07T18:16:10.966Z,1.00
2022-09-07T18:18:37.621Z,1.00
2022-09-07T18:21:10.061Z,1.00
2022-09-07T18:23:36.676Z,1.00
2022-09-07T18:26:03.229Z,1.00
2022-09-07T18:31:16.337Z,1.00
2022-09-07T18:33:42.956Z,1.00
2022-09-07T18:36:10.132Z,1.00
2022-09-07T18:38:36.641Z,1.00
2022-09-07T18:41:11.308Z,2.00
2022-09-07T18:43:39.392Z,1.70
2022-09-07T18:46:08.457Z,1.00
2022-09-07T18:48:35.328Z,1.00
2022-09-07T18:51:02.157Z,1.00
2022-09-07T18:53:30.035Z,1.00
2022-09-07T18:56:06.900Z,1.00
2022-09-07T18:58:34.237Z,1.00
2022-09-07T19:01:05.376Z,1.00
2022-09-07T19:03:32.692Z,1.00
2022-09-07T19:06:00.654Z,1.00
2022-09-07T19:08:31.550Z,1.00
2022-09-07T19:11:05.002Z,1.00
2022-09-07T19:13:31.570Z,1.30
2022-09-07T19:16:03.046Z,2.50
2022-09-07T19:18:29.626Z,5.00
2022-09-07T19:20:56.253Z,5.00
2022-09-07T19:23:22.761Z,5.00
2022-09-07T19:25:49.344Z,5.10
2022-09-07T19:28:15.899Z,7.40
2022-09-07T19:30:42.501Z,8.70
2022-09-07T19:33:11.967Z,9.10
2022-09-07T19:35:38.538Z,9.70
2022-09-07T19:38:05.183Z,9.60
2022-09-07T19:40:31.713Z,9.60
2022-09-07T19:42:58.267Z,8.70
2022-09-07T19:45:24.953Z,9.20
2022-09-07T19:47:51.594Z,9.60
2022-09-07T19:50:20.672Z,9.60
2022-09-07T19:52:47.250Z,9.60
2022-09-07T19:55:13.963Z,9.60
2022-09-07T19:57:40.489Z,9.60
2022-09-07T20:00:07.588Z,9.50
2022-09-07T20:02:34.112Z,9.50
2022-09-07T20:05:00.656Z,12.80
2022-09-07T20:07:27.165Z,14.40
2022-09-07T20:09:53.682Z,14.30
2022-09-07T20:12:20.221Z,15.40
2022-09-07T20:14:46.794Z,15.80
2022-09-07T20:17:13.341Z,15.40
2022-09-07T20:19:39.942Z,16.20
2022-09-07T20:22:06.483Z,16.00
2022-09-07T20:24:35.145Z,16.60
2022-09-07T20:27:02.744Z,16.40
2022-09-07T20:29:29.902Z,17.20
2022-09-07T20:31:59.681Z,18.90
2022-09-07T20:34:26.858Z,18.90
2022-09-07T20:36:54.073Z,18.70
2022-09-07T20:39:20.969Z,18.30
2022-09-07T20:41:47.781Z,18.80
2022-09-07T20:44:14.633Z,18.80
2022-09-07T20:46:41.637Z,21.00
2022-09-07T20:49:08.389Z,20.80
2022-09-07T20:51:35.274Z,18.80
2022-09-07T20:54:01.799Z,18.70
2022-09-07T20:56:28.957Z,18.70
2022-09-07T20:58:56.369Z,19.80
2022-09-07T21:01:23.518Z,20.10
2022-09-07T21:03:51.471Z,18.70
2022-09-07T21:06:18.430Z,19.50
2022-09-07T21:08:45.665Z,21.40
2022-09-07T21:11:20.176Z,23.40
2022-09-07T21:13:47.456Z,28.10
2022-09-07T21:16:15.675Z,26.40
2022-09-07T21:18:43.336Z,27.40
2022-09-07T21:21:19.748Z,33.00
2022-09-07T21:23:47.418Z,36.80
2022-09-07T21:26:14.053Z,38.90
2022-09-07T21:28:40.556Z,41.80
2022-09-07T21:31:08.454Z,43.00
2022-09-07T21:33:35.648Z,40.10
2022-09-07T21:36:09.579Z,41.60
2022-09-07T21:38:36.721Z,41.10
2022-09-07T21:41:10.480Z,33.00
2022-09-07T21:43:37.373Z,32.60
2022-09-07T21:46:08.151Z,36.00
2022-09-07T21:48:35.179Z,35.10
2022-09-07T21:51:01.776Z,35.00
2022-09-07T21:53:28.329Z,32.80
2022-09-07T21:55:55.532Z,32.70
2022-09-07T21:58:22.187Z,32.50
2022-09-07T22:00:48.764Z,32.70
2022-09-07T22:03:15.476Z,32.70
2022-09-07T22:05:42.281Z,31.70
2022-09-07T22:08:08.830Z,32.60
2022-09-07T22:10:35.443Z,34.90
2022-09-07T22:13:01.983Z,36.50
2022-09-07T22:15:28.598Z,38.40
2022-09-07T22:17:55.224Z,38.20
2022-09-07T22:20:21.879Z,36.80
2022-09-07T22:22:48.442Z,37.10
2022-09-07T22:25:15.087Z,35.10
2022-09-07T22:27:41.632Z,37.30
2022-09-07T22:30:08.298Z,39.80
2022-09-07T22:32:34.845Z,42.50
2022-09-07T22:35:01.351Z,41.50
2022-09-07T22:37:28.535Z,42.60
2022-09-07T22:39:55.166Z,42.80
2022-09-07T22:42:21.751Z,43.90
2022-09-07T22:44:48.332Z,43.90
2022-09-07T22:47:15.593Z,43.80
2022-09-07T22:49:42.105Z,44.60
2022-09-07T22:52:08.675Z,45.90
2022-09-07T22:54:35.216Z,44.70
2022-09-07T22:57:01.753Z,43.80
2022-09-07T22:59:29.544Z,43.70
2022-09-07T23:01:56.160Z,43.70
2022-09-07T23:04:22.820Z,43.60
2022-09-07T23:06:49.400Z,45.50
2022-09-07T23:09:17.247Z,46.80
2022-09-07T23:11:44.520Z,46.20
2022-09-07T23:14:15.829Z,45.20
2022-09-07T23:16:43.010Z,46.60
2022-09-07T23:19:10.459Z,46.50
2022-09-07T23:21:37.024Z,47.40
2022-09-07T23:24:03.607Z,48.10
2022-09-07T23:26:30.980Z,49.20
2022-09-07T23:28:59.047Z,46.50
2022-09-07T23:31:26.417Z,46.20
2022-09-07T23:33:53.007Z,49.20
2022-09-07T23:36:19.859Z,46.20
2022-09-07T23:38:46.934Z,45.20
2022-09-07T23:41:14.123Z,45.30
2022-09-07T23:43:40.708Z,47.30
2022-09-07T23:46:07.507Z,47.80
2022-09-07T23:48:34.059Z,46.90
2022-09-07T23:51:00.572Z,49.10
2022-09-07T23:53:27.212Z,51.60
2022-09-07T23:55:53.837Z,54.50
2022-09-07T23:58:21.569Z,59.70
